Aviation Digital Data Service (ADDS)

Output produced by METARs form (0859 UTC 24 March 2019)
found at http://www.aviationweather.gov/metar/data/
 
Forecast for: KCRW (CHARLESTON , WV, US)
Text: KCRW 240532Z 2406/2506 00000KT P6SM SCT250
Forecast period: 0600 to 2200 UTC 24 March 2019
Forecast type: FROM: standard forecast or significant change
Winds: calm
Visibility: 6 or more miles 10+ km)
Ceiling: at least 12,000 feet AGL
Clouds: scattered clouds at 25000 feet AGL
Weather: no significant weather forecast for this period
Text: FM242200 24006KT P6SM BKN100
Forecast period: 2200 UTC 24 March 2019 to 0200 UTC 25 March 2019
Forecast type: FROM: standard forecast or significant change
Winds: from the WSW (240 degrees) at 7 MPH (6 knots; 3.1 m/s)
Visibility: 6 or more miles 10+ km)
Ceiling: 10000 feet AGL
Clouds: broken clouds at 10000 feet AGL
Weather: no significant weather forecast for this period
Text: FM250200 21004KT P6SM BKN060
Forecast period: 0200 to 0600 UTC 25 March 2019
Forecast type: FROM: standard forecast or significant change
Winds: from the SSW (210 degrees) at 5 MPH (4 knots; 2.1 m/s)
Visibility: 6 or more miles 10+ km)
Ceiling: 6000 feet AGL
Clouds: broken clouds at 6000 feet AGL
Weather: no significant weather forecast for this period